Airfield :
LOGIN :

Register | Disclaimer

   EN    FR    IT 

 










Legend :    VFR   Marginal VFR   IFR   Intensive IFR   Very Intensive IFR
Visi :
Ceiling :
>= 8 km
>= 3000ft
5 to 8 km
1000 to 3000 ft
1500m to 5 km
500 to 1000 ft
800 to 1500m
200 to 500 ft
< 800m
< 200 ft
Symbols :   Thunderstorms  Fog  Heavy snow  Heavy precipitations  Wind > 20 kt
SIGMETs :     Misc.  Thunderstorms  Icing  Turbulence  Mountain Waves  Volcanic Ashes






- Airport Elevation : 423 ft
- IATA code : PIS


LFBI - Poitiers

CURRENT METAR :
  • 071000Z AUTO 13004KT 070V190 CAVOK 33/13 Q1016 NOSIG

EXPIRED METARs :
  • 070930Z AUTO 19004KT 110V250 CAVOK 31/13 Q1016 NOSIG
  • 070900Z AUTO 18005KT 140V220 CAVOK 30/13 Q1016 NOSIG
  • 070830Z AUTO 16004KT 100V220 CAVOK 28/12 Q1016 NOSIG
  • 070800Z AUTO 16004KT 130V200 CAVOK 26/12 Q1016 NOSIG
  • 070730Z AUTO 14003KT 090V180 CAVOK 25/12 Q1016 NOSIG

TAF TAF LFBI
Valid from the 07 at 06:00 until the 08 at 06:00 UTC


070500Z 0706/0806 VRB02KT CAVOK
TEMPO 0803/0806 SHRA SCT075TCU



MET'MAP, your aeronautical weather chart ! - Copyright ORBIFLY December 2007 - Disclaimer

ORBIFLY MET'MAP TEAM :

Programming & Development : Alexandra Zaïnal
Concept & original design : Baudouin d'Aumeries
Assistance for programming : Marc-Olivier Méhu
Technical & hardware support : Manuel Goepfert

Contact : metmap@orbifly.com




SOURCES & CREDITS :

   NOAA